createdAt,value
2023-10-20T00:00:32.441Z,9.43
2023-10-20T00:03:26.271Z,9.39
2023-10-20T00:06:00.228Z,9.36
2023-10-20T00:08:33.979Z,9.31
2023-10-20T00:11:11.112Z,9.27
2023-10-20T00:13:44.916Z,9.26
2023-10-20T00:16:25.510Z,9.25
2023-10-20T00:18:59.178Z,9.21
2023-10-20T00:21:32.880Z,9.19
2023-10-20T00:24:07.090Z,9.18
2023-10-20T00:26:41.121Z,9.16
2023-10-20T00:29:14.983Z,9.14
2023-10-20T00:31:49.288Z,9.11
2023-10-20T00:34:23.106Z,9.10
2023-10-20T00:36:57.035Z,9.07
2023-10-20T00:39:31.477Z,9.05
2023-10-20T00:42:05.351Z,9.05
2023-10-20T00:44:40.390Z,9.05
2023-10-20T00:47:14.329Z,9.06
2023-10-20T00:49:49.138Z,9.05
2023-10-20T00:52:23.548Z,9.06
2023-10-20T00:54:57.765Z,9.06
2023-10-20T00:57:31.590Z,9.05
2023-10-20T01:00:07.060Z,9.05
2023-10-20T01:02:41.239Z,9.08
2023-10-20T01:05:20.923Z,9.10
2023-10-20T01:07:54.646Z,9.12
2023-10-20T01:10:28.572Z,9.14
2023-10-20T01:13:02.338Z,9.15
2023-10-20T01:15:36.504Z,9.16
2023-10-20T01:18:12.515Z,9.17
2023-10-20T01:20:46.437Z,9.19
2023-10-20T01:23:19.564Z,9.20
2023-10-20T01:25:54.547Z,9.21
2023-10-20T01:28:27.477Z,9.21
2023-10-20T01:31:02.395Z,9.21
2023-10-20T01:33:36.187Z,9.20
2023-10-20T01:36:09.370Z,9.19
2023-10-20T01:38:42.399Z,9.17
2023-10-20T01:41:15.348Z,9.15
2023-10-20T01:43:48.746Z,9.13
2023-10-20T01:46:21.834Z,9.11
2023-10-20T01:48:55.069Z,9.11
2023-10-20T01:51:27.998Z,9.10
2023-10-20T01:54:01.219Z,9.11
2023-10-20T01:56:35.677Z,9.12
2023-10-20T01:59:08.892Z,9.13
2023-10-20T02:01:41.868Z,9.14
2023-10-20T02:04:14.891Z,9.14
2023-10-20T02:06:48.993Z,9.16
2023-10-20T02:09:21.962Z,9.18
2023-10-20T02:11:58.535Z,9.17
2023-10-20T02:14:31.914Z,9.16
2023-10-20T02:17:05.338Z,9.14
2023-10-20T02:19:38.378Z,9.12
2023-10-20T02:22:11.355Z,9.09
2023-10-20T02:24:46.030Z,9.06
2023-10-20T02:27:18.874Z,9.05
2023-10-20T02:29:51.843Z,9.06
2023-10-20T02:32:25.597Z,9.07
2023-10-20T02:34:59.655Z,9.09
2023-10-20T02:37:33.566Z,9.11
2023-10-20T02:40:09.203Z,9.13
2023-10-20T02:42:45.654Z,9.15
2023-10-20T02:45:19.717Z,9.18
2023-10-20T02:47:55.179Z,9.19
2023-10-20T02:50:31.362Z,9.20
2023-10-20T02:53:05.224Z,9.20
2023-10-20T02:55:39.235Z,9.20
2023-10-20T02:58:13.501Z,9.19
2023-10-20T03:00:48.328Z,9.18
2023-10-20T03:03:22.475Z,9.17
2023-10-20T03:05:56.480Z,9.15
2023-10-20T03:08:30.272Z,9.14
2023-10-20T03:11:05.804Z,9.13
2023-10-20T03:13:39.859Z,9.15
2023-10-20T03:16:13.771Z,9.15
2023-10-20T03:18:47.515Z,9.14
2023-10-20T03:21:23.267Z,9.13
2023-10-20T03:23:57.219Z,9.13
2023-10-20T03:26:31.142Z,9.14
2023-10-20T03:29:06.474Z,9.13
2023-10-20T03:31:40.449Z,9.11
2023-10-20T03:34:14.341Z,9.09
2023-10-20T03:36:48.807Z,9.09
2023-10-20T03:39:22.889Z,9.08
2023-10-20T03:41:56.728Z,9.07
2023-10-20T03:44:30.484Z,9.06
2023-10-20T03:47:07.194Z,9.03
2023-10-20T03:49:41.163Z,9.01
2023-10-20T03:52:15.060Z,9.00
2023-10-20T03:54:49.375Z,9.00
2023-10-20T03:57:23.162Z,9.00
2023-10-20T03:59:56.857Z,8.98
2023-10-20T04:02:30.680Z,8.96
2023-10-20T04:05:04.406Z,8.94
2023-10-20T04:07:38.538Z,8.92
2023-10-20T04:10:13.969Z,8.91
2023-10-20T04:12:48.642Z,8.91
2023-10-20T04:15:27.442Z,8.93
2023-10-20T04:18:01.219Z,8.93
2023-10-20T04:20:37.836Z,8.92
2023-10-20T04:23:12.005Z,8.91
2023-10-20T04:25:54.197Z,8.90
2023-10-20T04:28:34.243Z,8.87
2023-10-20T04:31:24.814Z,8.87
2023-10-20T04:34:16.687Z,8.89
2023-10-20T04:37:08.877Z,8.91
2023-10-20T04:39:59.425Z,8.94
2023-10-20T04:43:05.808Z,8.96
2023-10-20T04:45:56.486Z,8.98
2023-10-20T04:48:53.355Z,8.97
2023-10-20T04:51:46.736Z,8.97
2023-10-20T04:54:24.491Z,8.96
2023-10-20T04:57:11.574Z,8.97
2023-10-20T04:59:46.150Z,8.97
2023-10-20T05:02:33.878Z,8.97
2023-10-20T05:05:24.444Z,8.96
2023-10-20T05:07:59.954Z,8.93
2023-10-20T05:10:33.012Z,8.92
2023-10-20T05:13:06.758Z,8.91
2023-10-20T05:15:42.066Z,8.90
2023-10-20T05:18:16.464Z,8.88
2023-10-20T05:20:49.700Z,8.87
2023-10-20T05:23:22.840Z,8.87
2023-10-20T05:25:55.994Z,8.88
2023-10-20T05:28:29.153Z,8.90
2023-10-20T05:31:02.404Z,8.90
2023-10-20T05:33:36.052Z,8.90
2023-10-20T05:36:09.968Z,8.89
2023-10-20T05:38:43.516Z,8.91
2023-10-20T05:41:16.704Z,8.92
2023-10-20T05:43:49.850Z,8.92
2023-10-20T05:46:23.196Z,8.93
2023-10-20T05:48:56.510Z,8.95
2023-10-20T05:51:29.670Z,8.96
2023-10-20T05:54:04.819Z,8.98
2023-10-20T05:56:37.974Z,9.00
2023-10-20T05:59:11.178Z,9.01
2023-10-20T06:01:44.585Z,9.02
2023-10-20T06:04:17.885Z,9.02
2023-10-20T06:06:51.104Z,9.03
2023-10-20T06:09:26.719Z,9.04
2023-10-20T06:11:59.857Z,9.05
2023-10-20T06:14:33.603Z,9.07
2023-10-20T06:17:06.929Z,9.09
2023-10-20T06:19:40.608Z,9.10
2023-10-20T06:22:13.841Z,9.10
2023-10-20T06:24:47.846Z,9.12
2023-10-20T06:27:20.967Z,9.13
2023-10-20T06:29:57.583Z,9.13
2023-10-20T06:32:33.748Z,9.13
2023-10-20T06:35:10.659Z,9.14
2023-10-20T06:37:48.078Z,9.16
2023-10-20T06:40:22.217Z,9.17
2023-10-20T06:42:55.362Z,9.19
2023-10-20T06:45:28.623Z,9.20
2023-10-20T06:48:02.163Z,9.20
2023-10-20T06:50:36.129Z,9.19
2023-10-20T06:53:09.681Z,9.19
2023-10-20T06:56:05.408Z,9.18
2023-10-20T06:58:40.024Z,9.17
2023-10-20T07:01:13.354Z,9.16
2023-10-20T07:03:46.847Z,9.18
2023-10-20T07:06:22.152Z,9.19
2023-10-20T07:08:55.373Z,9.22
2023-10-20T07:11:29.028Z,9.25
2023-10-20T07:14:02.195Z,9.31
2023-10-20T07:16:35.593Z,9.37
2023-10-20T07:19:08.970Z,9.41
2023-10-20T07:21:42.802Z,9.45
2023-10-20T07:24:16.531Z,9.48
2023-10-20T07:26:50.916Z,9.50
2023-10-20T07:29:24.264Z,9.52
2023-10-20T07:31:57.788Z,9.55
2023-10-20T07:34:31.117Z,9.57
2023-10-20T07:37:04.540Z,9.57
2023-10-20T07:39:38.524Z,9.58
2023-10-20T07:42:11.815Z,9.59
2023-10-20T07:44:45.346Z,9.61
2023-10-20T07:47:18.555Z,9.64
2023-10-20T07:49:52.808Z,9.66
2023-10-20T07:52:26.054Z,9.67
2023-10-20T07:54:59.381Z,9.67
2023-10-20T07:57:32.466Z,9.66
2023-10-20T08:00:06.778Z,9.64
2023-10-20T08:02:45.827Z,9.62
2023-10-20T08:05:19.737Z,9.62
2023-10-20T08:07:53.140Z,9.62
2023-10-20T08:10:26.395Z,9.61
2023-10-20T08:12:59.789Z,9.62
2023-10-20T08:15:33.564Z,9.64
2023-10-20T08:18:08.641Z,9.66
2023-10-20T08:20:41.954Z,9.65
2023-10-20T08:23:15.285Z,9.66
2023-10-20T08:25:48.405Z,9.67
2023-10-20T08:28:21.699Z,9.68
2023-10-20T08:30:56.116Z,9.68
2023-10-20T08:33:29.619Z,9.69
2023-10-20T08:36:04.112Z,9.72
2023-10-20T08:38:37.428Z,9.76
2023-10-20T08:41:15.513Z,9.77
2023-10-20T08:43:49.560Z,9.77
2023-10-20T08:46:24.985Z,9.77
2023-10-20T08:48:59.257Z,9.78
2023-10-20T08:51:32.511Z,9.80
2023-10-20T08:54:06.275Z,9.81
2023-10-20T08:56:41.891Z,9.82
2023-10-20T08:59:15.114Z,9.82
2023-10-20T09:01:48.817Z,9.82
2023-10-20T09:04:29.601Z,9.82
2023-10-20T09:07:06.067Z,9.83
2023-10-20T09:12:15.736Z,9.87
2023-10-20T09:14:49.377Z,9.89
2023-10-20T09:17:26.943Z,9.92
2023-10-20T09:20:13.067Z,9.95
2023-10-20T09:22:46.611Z,9.98
2023-10-20T09:25:20.067Z,10.00
2023-10-20T09:27:53.394Z,10.02
2023-10-20T09:30:27.879Z,10.05
2023-10-20T09:33:01.286Z,10.07
2023-10-20T09:35:40.791Z,10.10
2023-10-20T09:38:15.106Z,10.10
2023-10-20T09:40:48.460Z,10.10
2023-10-20T09:43:26.904Z,10.12
2023-10-20T09:46:06.544Z,10.15
2023-10-20T09:48:42.298Z,10.17
2023-10-20T09:51:16.716Z,10.18
2023-10-20T09:53:50.533Z,10.19
2023-10-20T09:56:24.135Z,10.20
2023-10-20T09:59:03.520Z,10.19
2023-10-20T10:01:39.239Z,10.20
2023-10-20T10:04:12.769Z,10.21
2023-10-20T10:06:49.954Z,10.21
2023-10-20T10:09:23.103Z,10.20
2023-10-20T10:11:59.311Z,10.20
2023-10-20T10:14:34.118Z,10.22
2023-10-20T10:17:12.449Z,10.24
2023-10-20T10:19:53.633Z,10.25
2023-10-20T10:22:32.101Z,10.28
2023-10-20T10:25:05.833Z,10.32
2023-10-20T10:27:40.632Z,10.35
2023-10-20T10:30:17.071Z,10.38
2023-10-20T10:32:51.198Z,10.41
2023-10-20T10:35:24.864Z,10.44
2023-10-20T10:37:58.222Z,10.48
2023-10-20T10:40:33.935Z,10.50
2023-10-20T10:43:07.711Z,10.52
2023-10-20T10:45:41.677Z,10.55
2023-10-20T10:48:16.667Z,10.59
2023-10-20T10:50:50.664Z,10.63
2023-10-20T10:53:23.835Z,10.66
2023-10-20T10:55:57.502Z,10.70
2023-10-20T10:58:32.118Z,10.72
2023-10-20T11:01:05.680Z,10.74
2023-10-20T11:03:39.068Z,10.75
2023-10-20T11:06:12.403Z,10.75
2023-10-20T11:08:48.164Z,10.76
2023-10-20T11:11:21.460Z,10.77
2023-10-20T11:13:54.648Z,10.79
2023-10-20T11:16:27.796Z,10.83
2023-10-20T11:19:03.100Z,10.86
2023-10-20T11:21:50.131Z,10.91
2023-10-20T11:24:32.662Z,10.96
2023-10-20T11:27:07.030Z,11.01
2023-10-20T11:29:57.444Z,11.04
2023-10-20T11:32:32.364Z,11.06
2023-10-20T11:35:07.594Z,11.08
2023-10-20T11:37:40.666Z,11.09
2023-10-20T11:40:15.542Z,11.12
2023-10-20T11:42:49.605Z,11.15
2023-10-20T11:45:23.233Z,11.18
2023-10-20T11:47:56.432Z,11.21
2023-10-20T11:50:29.801Z,11.23
2023-10-20T11:53:03.027Z,11.24
2023-10-20T11:55:36.206Z,11.25
2023-10-20T11:58:09.412Z,11.28
2023-10-20T12:00:44.040Z,11.31
2023-10-20T12:03:17.751Z,11.35
2023-10-20T12:05:52.271Z,11.38
2023-10-20T12:08:26.126Z,11.42
2023-10-20T12:10:59.574Z,11.46
2023-10-20T12:13:36.152Z,11.51
2023-10-20T12:16:10.143Z,11.54
2023-10-20T12:18:44.929Z,11.58
2023-10-20T12:21:18.862Z,11.62
2023-10-20T12:23:52.030Z,11.66
2023-10-20T12:26:25.469Z,11.70
2023-10-20T12:28:59.132Z,11.72
2023-10-20T12:31:32.506Z,11.75
2023-10-20T12:34:06.707Z,11.77
2023-10-20T12:36:40.686Z,11.78
2023-10-20T12:39:19.180Z,11.80
2023-10-20T12:41:52.677Z,11.81
2023-10-20T12:44:27.508Z,11.83
2023-10-20T12:47:01.018Z,11.83
2023-10-20T12:49:34.475Z,11.83
2023-10-20T12:52:08.361Z,11.83
2023-10-20T12:54:43.150Z,11.84
2023-10-20T12:57:16.452Z,11.85
2023-10-20T12:59:49.889Z,11.87
2023-10-20T13:02:23.315Z,11.90
2023-10-20T13:04:56.620Z,11.92
2023-10-20T13:07:29.951Z,11.95
2023-10-20T13:10:05.165Z,11.96
2023-10-20T13:12:38.377Z,11.97
2023-10-20T13:15:18.836Z,11.97
2023-10-20T13:17:59.961Z,11.98
2023-10-20T13:20:35.023Z,12.00
2023-10-20T13:23:08.726Z,12.02
2023-10-20T13:25:42.044Z,12.05
2023-10-20T13:28:15.444Z,12.06
2023-10-20T13:31:07.713Z,12.08
2023-10-20T13:33:42.332Z,12.10
2023-10-20T13:36:23.061Z,12.13
2023-10-20T13:39:17.212Z,12.15
2023-10-20T13:41:57.584Z,12.17
2023-10-20T13:44:36.052Z,12.16
2023-10-20T13:47:10.284Z,12.17
2023-10-20T13:49:45.396Z,12.18
2023-10-20T13:52:18.994Z,12.19
2023-10-20T13:54:52.642Z,12.20
2023-10-20T13:57:30.162Z,12.20
2023-10-20T14:00:10.132Z,12.20
2023-10-20T14:02:52.248Z,12.19
2023-10-20T14:05:31.337Z,12.19
2023-10-20T14:08:13.970Z,12.19
2023-10-20T14:10:49.952Z,12.19
2023-10-20T14:13:23.419Z,12.19
2023-10-20T14:15:56.984Z,12.19
2023-10-20T14:18:30.645Z,12.20
2023-10-20T14:21:04.175Z,12.21
2023-10-20T14:23:37.894Z,12.21
2023-10-20T14:26:12.999Z,12.21
2023-10-20T14:28:51.323Z,12.20
2023-10-20T14:31:26.583Z,12.20
2023-10-20T14:34:10.360Z,12.21
2023-10-20T14:36:47.913Z,12.22
2023-10-20T14:39:24.250Z,12.21
2023-10-20T14:42:04.122Z,12.20
2023-10-20T14:44:44.578Z,12.19
2023-10-20T14:47:32.915Z,12.20
2023-10-20T14:50:19.829Z,12.21
2023-10-20T14:53:07.011Z,12.22
2023-10-20T14:55:53.500Z,12.23
2023-10-20T14:58:37.680Z,12.22
2023-10-20T15:01:24.163Z,12.25
2023-10-20T15:04:17.983Z,12.27
2023-10-20T15:07:04.913Z,12.28
2023-10-20T15:09:40.982Z,12.30
2023-10-20T15:12:19.160Z,12.32
2023-10-20T15:14:55.907Z,12.34
2023-10-20T15:17:30.950Z,12.35
2023-10-20T15:20:07.491Z,12.37
2023-10-20T15:22:45.543Z,12.38
2023-10-20T15:25:24.030Z,12.38
2023-10-20T15:28:07.547Z,12.37
2023-10-20T15:30:47.465Z,12.38
2023-10-20T15:33:27.609Z,12.38
2023-10-20T15:36:09.800Z,12.38
2023-10-20T15:38:46.969Z,12.38
2023-10-20T15:41:28.270Z,12.38
2023-10-20T15:44:05.566Z,12.39
2023-10-20T15:46:46.218Z,12.41
2023-10-20T15:49:22.021Z,12.40
2023-10-20T15:52:02.561Z,12.39
2023-10-20T15:54:39.103Z,12.36
2023-10-20T15:57:16.865Z,12.35
2023-10-20T16:00:00.422Z,12.36
2023-10-20T16:02:39.564Z,12.36
2023-10-20T16:05:15.922Z,12.35
2023-10-20T16:07:53.084Z,12.35
2023-10-20T16:10:28.947Z,12.34
2023-10-20T16:13:05.946Z,12.36
2023-10-20T16:15:45.955Z,12.38
2023-10-20T16:18:21.579Z,12.39
2023-10-20T16:21:03.202Z,12.38
2023-10-20T16:23:41.335Z,12.37
2023-10-20T16:26:19.388Z,12.38
2023-10-20T16:28:54.824Z,12.37
2023-10-20T16:31:31.570Z,12.37
2023-10-20T16:34:06.989Z,12.37
2023-10-20T16:36:43.048Z,12.39
2023-10-20T16:39:19.664Z,12.40
2023-10-20T16:41:57.071Z,12.40
2023-10-20T16:44:33.787Z,12.41
2023-10-20T16:47:13.694Z,12.42
2023-10-20T16:49:52.209Z,12.43
2023-10-20T16:52:32.729Z,12.44
2023-10-20T16:55:11.246Z,12.45
2023-10-20T16:57:59.119Z,12.46
2023-10-20T17:00:47.043Z,12.47
2023-10-20T17:03:26.718Z,12.47
2023-10-20T17:06:05.997Z,12.47
2023-10-20T17:08:45.932Z,12.48
2023-10-20T17:11:25.610Z,12.48
2023-10-20T17:14:08.349Z,12.48
2023-10-20T17:16:45.971Z,12.48
2023-10-20T17:19:28.478Z,12.49
2023-10-20T17:22:13.225Z,12.49
2023-10-20T17:24:57.026Z,12.50
2023-10-20T17:27:36.950Z,12.50
2023-10-20T17:30:20.145Z,12.50
2023-10-20T17:33:01.349Z,12.51
2023-10-20T17:35:49.225Z,12.53
2023-10-20T17:38:29.868Z,12.54
2023-10-20T17:41:14.431Z,12.56
2023-10-20T17:43:54.677Z,12.57
2023-10-20T17:46:34.048Z,12.59
2023-10-20T17:49:13.209Z,12.60
2023-10-20T17:52:01.121Z,12.61
2023-10-20T17:54:37.454Z,12.62
2023-10-20T17:57:20.712Z,12.64
2023-10-20T17:59:58.817Z,12.64
2023-10-20T18:02:38.145Z,12.65
2023-10-20T18:05:20.142Z,12.65
2023-10-20T18:07:58.900Z,12.66
2023-10-20T18:10:36.485Z,12.66
2023-10-20T18:13:18.114Z,12.68
2023-10-20T18:15:57.836Z,12.69
2023-10-20T18:18:45.516Z,12.70
2023-10-20T18:21:26.024Z,12.72
2023-10-20T18:24:14.739Z,12.72
2023-10-20T18:27:00.078Z,12.72
2023-10-20T18:29:44.616Z,12.74
2023-10-20T18:32:30.282Z,12.76
2023-10-20T18:35:12.871Z,12.79
2023-10-20T18:38:00.809Z,12.83
2023-10-20T18:40:45.507Z,12.85
2023-10-20T18:43:26.501Z,12.87
2023-10-20T18:46:06.305Z,12.89
2023-10-20T18:48:49.031Z,12.92
2023-10-20T18:51:33.665Z,12.92
2023-10-20T18:54:21.099Z,12.93
2023-10-20T18:57:00.470Z,12.95
2023-10-20T18:59:40.648Z,12.97
2023-10-20T19:02:24.080Z,12.99
2023-10-20T19:05:08.838Z,13.01
2023-10-20T19:07:49.935Z,13.01
2023-10-20T19:10:37.785Z,13.01
2023-10-20T19:13:18.866Z,13.02
2023-10-20T19:16:23.241Z,13.04
2023-10-20T19:19:08.123Z,13.04
2023-10-20T19:21:55.401Z,13.06
2023-10-20T19:24:36.954Z,13.07
2023-10-20T19:27:26.951Z,13.10
2023-10-20T19:30:12.207Z,13.12
2023-10-20T19:33:01.171Z,13.13
2023-10-20T19:35:43.074Z,13.15
2023-10-20T19:38:23.950Z,13.15
2023-10-20T19:41:10.641Z,13.16
2023-10-20T19:43:57.770Z,13.17
2023-10-20T19:46:41.858Z,13.17
2023-10-20T19:49:26.787Z,13.16
2023-10-20T19:52:17.494Z,13.15
2023-10-20T19:55:09.393Z,13.14
2023-10-20T19:57:59.193Z,13.14
2023-10-20T20:00:45.395Z,13.14
2023-10-20T20:03:30.163Z,13.14
2023-10-20T20:06:21.169Z,13.15
2023-10-20T20:09:07.942Z,13.16
2023-10-20T20:11:58.372Z,13.17
2023-10-20T20:14:54.455Z,13.19
2023-10-20T20:17:38.089Z,13.21
2023-10-20T20:20:22.175Z,13.22
2023-10-20T20:23:05.838Z,13.24
2023-10-20T20:25:42.841Z,13.25
2023-10-20T20:28:25.373Z,13.25
2023-10-20T20:31:17.517Z,13.25
2023-10-20T20:33:55.319Z,13.24
2023-10-20T20:36:32.192Z,13.23
2023-10-20T20:39:16.712Z,13.21
2023-10-20T20:42:02.545Z,13.18
2023-10-20T20:44:49.695Z,13.14
2023-10-20T20:47:24.434Z,13.12
2023-10-20T20:50:06.770Z,13.12
2023-10-20T20:52:45.980Z,13.12
2023-10-20T20:55:30.669Z,13.14
2023-10-20T20:58:07.036Z,13.15
2023-10-20T21:00:42.793Z,13.16
2023-10-20T21:03:19.123Z,13.14
2023-10-20T21:06:04.874Z,13.14
2023-10-20T21:08:42.102Z,13.12
2023-10-20T21:11:21.847Z,13.10
2023-10-20T21:14:07.267Z,13.10
2023-10-20T21:16:48.368Z,13.10
2023-10-20T21:19:26.921Z,13.11
2023-10-20T21:22:08.011Z,13.09
2023-10-20T21:24:50.014Z,13.08
2023-10-20T21:27:34.378Z,13.09
2023-10-20T21:30:13.278Z,13.12
2023-10-20T21:32:49.771Z,13.16
2023-10-20T21:35:24.522Z,13.18
2023-10-20T21:37:58.992Z,13.17
2023-10-20T21:40:33.904Z,13.14
2023-10-20T21:43:08.746Z,13.10
2023-10-20T21:45:43.275Z,13.05
2023-10-20T21:48:30.007Z,12.99
2023-10-20T21:51:05.652Z,12.93
2023-10-20T21:53:40.120Z,12.88
2023-10-20T21:56:15.532Z,12.86
2023-10-20T21:58:50.465Z,12.86
2023-10-20T22:01:27.293Z,12.89
2023-10-20T22:04:02.411Z,12.93
2023-10-20T22:06:36.997Z,12.94
2023-10-20T22:09:11.729Z,12.91
2023-10-20T22:11:48.239Z,12.90
2023-10-20T22:14:23.367Z,12.90
2023-10-20T22:16:58.748Z,12.91
2023-10-20T22:19:36.724Z,12.90
2023-10-20T22:22:13.691Z,12.87
2023-10-20T22:24:50.009Z,12.84
2023-10-20T22:27:28.860Z,12.81
2023-10-20T22:30:04.312Z,12.78
2023-10-20T22:32:40.362Z,12.76
2023-10-20T22:35:19.075Z,12.73
2023-10-20T22:37:55.021Z,12.70
2023-10-20T22:40:29.601Z,12.69
2023-10-20T22:43:04.613Z,12.67
2023-10-20T22:45:46.119Z,12.64
2023-10-20T22:48:22.511Z,12.61
2023-10-20T22:51:02.970Z,12.59
2023-10-20T22:53:37.821Z,12.56
2023-10-20T22:56:13.994Z,12.53
2023-10-20T22:58:51.011Z,12.50
2023-10-20T23:01:26.382Z,12.47
2023-10-20T23:04:02.093Z,12.43
2023-10-20T23:06:36.912Z,12.41
2023-10-20T23:09:12.162Z,12.36
2023-10-20T23:11:47.292Z,12.29
2023-10-20T23:14:21.603Z,12.22
2023-10-20T23:16:55.747Z,12.14
2023-10-20T23:19:29.805Z,12.04
2023-10-20T23:22:03.444Z,11.96
2023-10-20T23:24:37.358Z,11.87
2023-10-20T23:27:11.908Z,11.76
2023-10-20T23:29:46.299Z,11.69
2023-10-20T23:32:19.874Z,11.60
2023-10-20T23:34:53.320Z,11.50
2023-10-20T23:37:26.705Z,11.42
2023-10-20T23:40:00.030Z,11.31
2023-10-20T23:42:33.673Z,11.20
2023-10-20T23:45:08.697Z,11.11
2023-10-20T23:47:42.943Z,11.09
2023-10-20T23:50:17.062Z,11.09
2023-10-20T23:52:51.572Z,11.08
2023-10-20T23:55:25.151Z,11.06
2023-10-20T23:57:59.833Z,11.05
